createdAt,value
2018-02-05T00:00:56.806Z,0.00
2018-02-05T00:02:50.193Z,0.00
2018-02-05T00:03:50.224Z,0.00
2018-02-05T00:05:43.556Z,0.00
2018-02-05T00:06:43.591Z,0.00
2018-02-05T00:08:36.999Z,0.00
2018-02-05T00:09:36.987Z,0.00
2018-02-05T00:11:31.360Z,0.00
2018-02-05T00:12:31.349Z,0.00
2018-02-05T00:14:24.736Z,0.00
2018-02-05T00:15:24.709Z,0.00
2018-02-05T00:17:19.184Z,0.00
2018-02-05T00:18:19.135Z,0.00
2018-02-05T00:20:12.454Z,0.00
2018-02-05T00:21:12.461Z,0.00
2018-02-05T00:23:05.944Z,0.00
2018-02-05T00:24:05.818Z,0.00
2018-02-05T00:25:59.233Z,0.00
2018-02-05T00:26:59.223Z,0.00
2018-02-05T00:28:53.666Z,0.00
2018-02-05T00:29:53.615Z,0.00
2018-02-05T00:31:48.005Z,0.00
2018-02-05T00:32:47.980Z,0.00
2018-02-05T00:34:41.364Z,0.00
2018-02-05T00:35:41.373Z,0.00
2018-02-05T00:37:34.745Z,0.00
2018-02-05T00:38:34.724Z,0.00
2018-02-05T00:40:28.152Z,0.00
2018-02-05T00:41:28.121Z,0.00
2018-02-05T00:43:21.493Z,0.00
2018-02-05T00:44:21.484Z,0.00
2018-02-05T00:46:14.887Z,0.00
2018-02-05T00:47:14.849Z,0.00
2018-02-05T00:49:08.265Z,0.00
2018-02-05T00:50:08.281Z,0.00
2018-02-05T00:52:01.635Z,0.00
2018-02-05T00:53:01.668Z,0.00
2018-02-05T00:54:55.058Z,0.00
2018-02-05T00:55:55.044Z,0.00
2018-02-05T00:57:48.510Z,0.00
2018-02-05T00:58:48.417Z,0.00
2018-02-05T01:00:41.877Z,0.00
2018-02-05T01:01:41.807Z,0.00
2018-02-05T01:03:35.155Z,0.00
2018-02-05T01:04:35.201Z,0.00
2018-02-05T01:06:28.623Z,0.00
2018-02-05T01:07:28.594Z,0.00
2018-02-05T01:09:21.931Z,0.00
2018-02-05T01:10:21.927Z,0.00
2018-02-05T01:12:15.355Z,0.00
2018-02-05T01:13:15.292Z,0.00
2018-02-05T01:15:08.684Z,0.00
2018-02-05T01:16:08.721Z,0.00
2018-02-05T01:18:02.149Z,0.00
2018-02-05T01:19:02.107Z,0.00
2018-02-05T01:20:55.459Z,0.00
2018-02-05T01:21:55.419Z,0.00
2018-02-05T01:23:48.835Z,0.00
2018-02-05T01:24:48.862Z,0.00
2018-02-05T01:26:43.240Z,0.00
2018-02-05T01:27:43.209Z,0.00
2018-02-05T01:29:37.617Z,0.00
2018-02-05T01:30:37.572Z,0.00
2018-02-05T01:32:30.989Z,0.00
2018-02-05T01:33:30.954Z,0.00
2018-02-05T01:35:25.366Z,0.00
2018-02-05T01:36:25.331Z,0.00
2018-02-05T01:38:18.752Z,0.00
2018-02-05T01:39:18.716Z,0.00
2018-02-05T01:41:12.181Z,0.00
2018-02-05T01:42:12.130Z,0.00
2018-02-05T01:44:06.496Z,0.00
2018-02-05T01:45:06.461Z,0.00
2018-02-05T01:47:00.810Z,0.00
2018-02-05T01:48:00.870Z,0.00
2018-02-05T01:49:55.236Z,0.00
2018-02-05T01:50:55.230Z,0.00
2018-02-05T01:52:48.603Z,0.00
2018-02-05T01:53:48.615Z,0.00
2018-02-05T01:55:42.994Z,0.00
2018-02-05T01:56:42.975Z,0.00
2018-02-05T01:58:36.418Z,0.00
2018-02-05T01:59:36.373Z,0.00
2018-02-05T02:01:29.759Z,0.00
2018-02-05T02:02:29.775Z,0.00
2018-02-05T02:04:23.130Z,0.00
2018-02-05T02:05:23.147Z,0.00
2018-02-05T02:07:17.533Z,0.00
2018-02-05T02:08:17.500Z,0.00
2018-02-05T02:10:10.933Z,0.00
2018-02-05T02:11:10.889Z,0.00
2018-02-05T02:13:04.238Z,0.00
2018-02-05T02:14:04.249Z,0.00
2018-02-05T02:15:57.613Z,0.00
2018-02-05T02:16:57.647Z,0.00
2018-02-05T02:18:51.012Z,0.00
2018-02-05T02:19:51.046Z,0.00
2018-02-05T02:21:45.413Z,0.00
2018-02-05T02:22:45.405Z,0.00
2018-02-05T02:24:38.814Z,0.00
2018-02-05T02:25:38.760Z,0.00
2018-02-05T02:27:32.234Z,0.00
2018-02-05T02:28:32.154Z,0.00
2018-02-05T02:30:25.582Z,0.00
2018-02-05T02:31:25.538Z,0.00
2018-02-05T02:33:19.939Z,0.00
2018-02-05T02:34:20.013Z,0.00
2018-02-05T02:36:13.370Z,0.00
2018-02-05T02:37:13.298Z,0.00
2018-02-05T02:39:07.631Z,0.00
2018-02-05T02:40:07.693Z,0.00
2018-02-05T02:42:01.057Z,0.00
2018-02-05T02:43:01.090Z,0.00
2018-02-05T02:44:55.479Z,0.00
2018-02-05T02:45:55.416Z,0.00
2018-02-05T02:47:48.821Z,0.00
2018-02-05T02:48:48.802Z,0.00
2018-02-05T02:50:42.186Z,0.00
2018-02-05T02:51:42.185Z,0.00
2018-02-05T02:53:35.615Z,0.00
2018-02-05T02:54:35.562Z,0.00
2018-02-05T02:56:28.937Z,0.00
2018-02-05T02:57:28.972Z,0.00
2018-02-05T02:59:22.370Z,0.00
2018-02-05T03:00:22.382Z,0.00
2018-02-05T03:02:15.798Z,0.00
2018-02-05T03:03:15.760Z,0.00
2018-02-05T03:05:09.163Z,0.00
2018-02-05T03:06:09.079Z,0.00
2018-02-05T03:08:02.503Z,0.00
2018-02-05T03:09:02.525Z,0.00
2018-02-05T03:10:55.899Z,0.00
2018-02-05T03:11:55.930Z,0.00
2018-02-05T03:13:50.279Z,0.00
2018-02-05T03:14:50.201Z,0.00
2018-02-05T03:16:43.675Z,0.00
2018-02-05T03:17:43.643Z,0.00
2018-02-05T03:19:37.965Z,0.00
2018-02-05T03:20:38.041Z,0.00
2018-02-05T03:22:31.457Z,0.00
2018-02-05T03:23:31.429Z,0.00
2018-02-05T03:25:24.798Z,0.00
2018-02-05T03:26:24.809Z,0.00
2018-02-05T03:28:19.247Z,0.00
2018-02-05T03:29:19.172Z,0.00
2018-02-05T03:31:12.576Z,0.00
2018-02-05T03:32:12.564Z,0.00
2018-02-05T03:34:06.038Z,0.00
2018-02-05T03:35:05.970Z,0.00
2018-02-05T03:37:07.960Z,0.00
2018-02-05T03:37:59.393Z,0.00
2018-02-05T03:39:52.735Z,0.00
2018-02-05T03:40:52.780Z,0.00
2018-02-05T03:42:46.120Z,0.00
2018-02-05T03:43:46.110Z,0.00
2018-02-05T03:45:40.499Z,0.00
2018-02-05T03:46:40.515Z,0.00
2018-02-05T03:48:33.877Z,0.00
2018-02-05T03:49:33.830Z,0.00
2018-02-05T03:51:27.264Z,0.00
2018-02-05T03:52:27.243Z,0.00
2018-02-05T03:54:21.674Z,0.00
2018-02-05T03:55:21.681Z,0.00
2018-02-05T03:57:15.051Z,0.00
2018-02-05T03:58:14.995Z,0.00
2018-02-05T04:00:08.472Z,0.00
2018-02-05T04:01:08.432Z,0.00
2018-02-05T04:03:09.491Z,0.00
2018-02-05T04:04:01.746Z,0.00
2018-02-05T04:05:55.170Z,0.00
2018-02-05T04:06:55.180Z,0.00
2018-02-05T04:08:48.597Z,0.00
2018-02-05T04:09:48.567Z,0.00
2018-02-05T04:11:50.596Z,0.00
2018-02-05T04:12:42.908Z,0.00
2018-02-05T04:14:36.381Z,0.00
2018-02-05T04:15:36.342Z,0.00
2018-02-05T04:17:29.730Z,0.00
2018-02-05T04:18:29.746Z,0.00
2018-02-05T04:20:23.088Z,0.00
2018-02-05T04:21:23.081Z,0.00
2018-02-05T04:23:16.493Z,0.00
2018-02-05T04:24:16.470Z,0.00
2018-02-05T04:26:09.913Z,0.00
2018-02-05T04:27:09.862Z,0.00
2018-02-05T04:29:03.262Z,0.00
2018-02-05T04:30:03.245Z,0.00
2018-02-05T04:31:56.725Z,0.00
2018-02-05T04:32:56.626Z,0.00
2018-02-05T04:34:50.068Z,0.00
2018-02-05T04:35:50.031Z,0.00
2018-02-05T04:37:43.448Z,0.00
2018-02-05T04:38:43.380Z,0.00
2018-02-05T04:40:36.787Z,0.00
2018-02-05T04:41:36.784Z,0.00
2018-02-05T04:43:30.116Z,0.00
2018-02-05T04:44:30.099Z,0.00
2018-02-05T04:46:23.522Z,0.00
2018-02-05T04:47:23.477Z,0.00
2018-02-05T04:49:16.881Z,0.00
2018-02-05T04:50:16.878Z,0.00
2018-02-05T04:52:10.283Z,0.00
2018-02-05T04:53:10.232Z,0.00
2018-02-05T04:55:03.647Z,0.00
2018-02-05T04:56:03.650Z,0.00
2018-02-05T04:57:57.007Z,0.00
2018-02-05T04:58:57.013Z,0.00
2018-02-05T05:00:51.419Z,0.00
2018-02-05T05:01:51.387Z,0.00
2018-02-05T05:03:44.822Z,0.00
2018-02-05T05:04:44.784Z,0.00
2018-02-05T05:06:38.171Z,0.00
2018-02-05T05:07:38.145Z,0.00
2018-02-05T05:09:31.542Z,0.00
2018-02-05T05:10:31.562Z,0.00
2018-02-05T05:12:24.931Z,0.00
2018-02-05T05:13:24.939Z,0.00
2018-02-05T05:15:18.313Z,0.00
2018-02-05T05:16:18.273Z,0.00
2018-02-05T05:18:11.683Z,0.00
2018-02-05T05:19:11.677Z,0.00
2018-02-05T05:21:05.107Z,0.00
2018-02-05T05:22:05.069Z,0.00
2018-02-05T05:23:58.457Z,0.00
2018-02-05T05:24:58.433Z,0.00
2018-02-05T05:26:51.836Z,0.00
2018-02-05T05:27:51.829Z,0.00
2018-02-05T05:29:45.173Z,0.00
2018-02-05T05:30:45.180Z,0.00
2018-02-05T05:32:38.595Z,0.00
2018-02-05T05:33:38.549Z,0.00
2018-02-05T05:35:31.956Z,0.00
2018-02-05T05:36:31.961Z,0.00
2018-02-05T05:38:25.361Z,0.00
2018-02-05T05:39:25.325Z,0.00
2018-02-05T05:41:19.722Z,0.00
2018-02-05T05:42:19.756Z,0.00
2018-02-05T05:44:13.101Z,0.00
2018-02-05T05:45:13.084Z,0.00
2018-02-05T05:47:06.475Z,0.00
2018-02-05T05:48:06.486Z,0.00
2018-02-05T05:49:59.896Z,0.00
2018-02-05T05:50:59.860Z,0.00
2018-02-05T05:52:53.294Z,0.00
2018-02-05T05:53:53.340Z,0.00
2018-02-05T05:55:46.689Z,0.00
2018-02-05T05:56:46.719Z,0.00
2018-02-05T05:58:40.117Z,0.00
2018-02-05T05:59:40.061Z,0.00
2018-02-05T06:01:34.493Z,0.00
2018-02-05T06:02:34.441Z,0.00
2018-02-05T06:04:27.810Z,0.00
2018-02-05T06:05:27.841Z,0.00
2018-02-05T06:07:22.198Z,0.00
2018-02-05T06:08:22.181Z,0.00
2018-02-05T06:10:15.602Z,0.00
2018-02-05T06:11:15.569Z,0.00
2018-02-05T06:13:08.976Z,0.00
2018-02-05T06:14:08.971Z,0.00
2018-02-05T06:16:02.385Z,0.00
2018-02-05T06:17:02.390Z,0.00
2018-02-05T06:18:55.794Z,4.00
2018-02-05T06:19:55.718Z,4.00
2018-02-05T06:21:49.087Z,4.00
2018-02-05T06:22:49.140Z,4.00
2018-02-05T06:24:42.491Z,8.00
2018-02-05T06:25:42.503Z,8.00
2018-02-05T06:27:36.883Z,16.00
2018-02-05T06:28:36.909Z,16.00
2018-02-05T06:30:30.316Z,20.00
2018-02-05T06:31:30.287Z,28.00
2018-02-05T06:33:23.689Z,40.00
2018-02-05T06:34:23.694Z,44.00
2018-02-05T06:36:17.102Z,52.00
2018-02-05T06:37:17.085Z,56.00
2018-02-05T06:39:10.463Z,84.00
2018-02-05T06:40:10.460Z,92.00
2018-02-05T06:42:03.881Z,92.00
2018-02-05T06:43:03.817Z,100.00
2018-02-05T06:44:57.209Z,128.00
2018-02-05T06:45:57.264Z,140.00
2018-02-05T06:47:50.601Z,180.00
2018-02-05T06:48:50.594Z,208.00
2018-02-05T06:50:43.977Z,232.00
2018-02-05T06:51:43.998Z,248.00
2018-02-05T06:53:37.352Z,288.00
2018-02-05T06:54:37.356Z,304.00
2018-02-05T06:56:30.737Z,360.00
2018-02-05T06:57:30.702Z,412.00
2018-02-05T06:59:24.143Z,468.00
2018-02-05T07:00:24.107Z,508.00
2018-02-05T07:02:17.499Z,620.00
2018-02-05T07:03:17.523Z,552.00
2018-02-05T07:05:10.891Z,572.00
2018-02-05T07:06:10.858Z,668.00
2018-02-05T07:08:04.290Z,692.00
2018-02-05T07:09:04.264Z,684.00
2018-02-05T07:10:57.625Z,764.00
2018-02-05T07:11:57.655Z,792.00
2018-02-05T07:13:51.022Z,904.00
2018-02-05T07:14:51.006Z,916.00
2018-02-05T07:16:44.405Z,1028.00
2018-02-05T07:17:44.396Z,1080.00
2018-02-05T07:19:37.763Z,1172.00
2018-02-05T07:20:37.777Z,1104.00
2018-02-05T07:22:31.149Z,1068.00
2018-02-05T07:23:31.177Z,1072.00
2018-02-05T07:25:24.541Z,1400.00
2018-02-05T07:26:24.585Z,1408.00
2018-02-05T07:28:17.913Z,1136.00
2018-02-05T07:29:17.938Z,1208.00
2018-02-05T07:31:11.313Z,1328.00
2018-02-05T07:32:11.274Z,1340.00
2018-02-05T07:34:04.638Z,1428.00
2018-02-05T07:35:04.662Z,1464.00
2018-02-05T07:36:59.049Z,1580.00
2018-02-05T07:37:59.045Z,1544.00
2018-02-05T07:39:53.416Z,1376.00
2018-02-05T07:40:53.398Z,1420.00
2018-02-05T07:42:46.839Z,1556.00
2018-02-05T07:43:46.793Z,1564.00
2018-02-05T07:45:40.241Z,1672.00
2018-02-05T07:46:40.184Z,1588.00
2018-02-05T07:48:33.578Z,1660.00
2018-02-05T07:49:33.550Z,1704.00
2018-02-05T07:51:26.969Z,1876.00
2018-02-05T07:52:26.957Z,2092.00
2018-02-05T07:54:20.333Z,2096.00
2018-02-05T07:55:20.331Z,2032.00
2018-02-05T07:57:13.711Z,1720.00
2018-02-05T07:58:13.689Z,1464.00
2018-02-05T08:00:07.184Z,1880.00
2018-02-05T08:01:07.213Z,2236.00
2018-02-05T08:03:00.618Z,2368.00
2018-02-05T08:04:00.532Z,2792.00
2018-02-05T08:05:53.907Z,2492.00
2018-02-05T08:06:53.909Z,2408.00
2018-02-05T08:08:47.310Z,2816.00
2018-02-05T08:09:47.292Z,2720.00
2018-02-05T08:11:41.734Z,2676.00
2018-02-05T08:12:41.710Z,2536.00
2018-02-05T08:14:35.130Z,2620.00
2018-02-05T08:15:35.092Z,3000.00
2018-02-05T08:17:28.485Z,3488.00
2018-02-05T08:18:28.468Z,3320.00
2018-02-05T08:20:21.853Z,3772.00
2018-02-05T08:21:21.869Z,3864.00
2018-02-05T08:23:15.303Z,4012.00
2018-02-05T08:24:15.272Z,3940.00
2018-02-05T08:26:08.648Z,3896.00
2018-02-05T08:27:08.647Z,4072.00
2018-02-05T08:29:02.051Z,4044.00
2018-02-05T08:30:02.026Z,4412.00
2018-02-05T08:31:55.418Z,5236.00
2018-02-05T08:32:55.412Z,5196.00
2018-02-05T08:34:48.810Z,4168.00
2018-02-05T08:35:48.792Z,4004.00
2018-02-05T08:37:42.169Z,3956.00
2018-02-05T08:38:42.184Z,4344.00
2018-02-05T08:40:35.595Z,5168.00
2018-02-05T08:41:35.582Z,4468.00
2018-02-05T08:43:30.072Z,4192.00
2018-02-05T08:44:29.940Z,3368.00
2018-02-05T08:46:23.332Z,3020.00
2018-02-05T08:47:23.329Z,3160.00
2018-02-05T08:49:16.767Z,4500.00
2018-02-05T08:50:16.714Z,5224.00
2018-02-05T08:52:10.082Z,3868.00
2018-02-05T08:53:10.105Z,3648.00
2018-02-05T08:55:03.502Z,2868.00
2018-02-05T08:56:03.490Z,3004.00
2018-02-05T08:57:56.868Z,3588.00
2018-02-05T08:58:56.869Z,3812.00
2018-02-05T09:00:50.239Z,3864.00
2018-02-05T09:01:50.250Z,3668.00
2018-02-05T09:03:45.624Z,4000.00
2018-02-05T09:04:45.611Z,4276.00
2018-02-05T09:06:39.011Z,3908.00
2018-02-05T09:07:39.004Z,3500.00
2018-02-05T09:09:32.367Z,4124.00
2018-02-05T09:10:32.372Z,4148.00
2018-02-05T09:12:25.796Z,4608.00
2018-02-05T09:13:25.753Z,5660.00
2018-02-05T09:15:19.185Z,6060.00
2018-02-05T09:16:19.158Z,5868.00
2018-02-05T09:18:12.554Z,6672.00
2018-02-05T09:19:12.520Z,6140.00
2018-02-05T09:21:05.891Z,5836.00
2018-02-05T09:22:05.892Z,5468.00
2018-02-05T09:23:59.372Z,5668.00
2018-02-05T09:24:59.293Z,5564.00
2018-02-05T09:26:52.675Z,5020.00
2018-02-05T09:27:52.691Z,5224.00
2018-02-05T09:29:46.041Z,5328.00
2018-02-05T09:30:46.072Z,5420.00
2018-02-05T09:32:39.501Z,5744.00
2018-02-05T09:33:39.458Z,6116.00
2018-02-05T09:35:32.814Z,6868.00
2018-02-05T09:36:32.839Z,7508.00
2018-02-05T09:38:26.310Z,5588.00
2018-02-05T09:39:26.302Z,6764.00
2018-02-05T09:41:19.675Z,6932.00
2018-02-05T09:42:19.692Z,6644.00
2018-02-05T09:44:13.138Z,5480.00
2018-02-05T09:45:13.105Z,5588.00
2018-02-05T09:47:06.465Z,6176.00
2018-02-05T09:48:06.447Z,6152.00
2018-02-05T09:50:00.831Z,5648.00
2018-02-05T09:51:00.847Z,5648.00
2018-02-05T09:52:54.224Z,6140.00
2018-02-05T09:53:54.190Z,6480.00
2018-02-05T09:55:47.621Z,5452.00
2018-02-05T09:56:47.589Z,5424.00
2018-02-05T09:58:40.979Z,6260.00
2018-02-05T09:59:40.973Z,6492.00
2018-02-05T10:01:34.371Z,6824.00
2018-02-05T10:02:34.348Z,6432.00
2018-02-05T10:04:27.761Z,5764.00
2018-02-05T10:05:27.743Z,5504.00
2018-02-05T10:07:21.136Z,6196.00
2018-02-05T10:08:21.108Z,6832.00
2018-02-05T10:10:14.505Z,8564.00
2018-02-05T10:11:14.494Z,8492.00
2018-02-05T10:13:08.877Z,8668.00
2018-02-05T10:14:08.914Z,7948.00
2018-02-05T10:16:03.319Z,8372.00
2018-02-05T10:17:03.275Z,9016.00
2018-02-05T10:18:57.666Z,11896.00
2018-02-05T10:19:57.681Z,18080.00
2018-02-05T10:21:51.068Z,48576.00
2018-02-05T10:22:51.064Z,43072.00
2018-02-05T10:24:45.427Z,18048.00
2018-02-05T10:25:45.433Z,33216.00
2018-02-05T10:27:38.839Z,44256.00
2018-02-05T10:28:38.802Z,18880.00
2018-02-05T10:30:32.212Z,16096.00
2018-02-05T10:31:32.217Z,14736.00
2018-02-05T10:33:25.599Z,17824.00
2018-02-05T10:34:25.576Z,50496.00
2018-02-05T10:36:19.960Z,52480.00
2018-02-05T10:37:19.962Z,49376.00
2018-02-05T10:39:13.369Z,44352.00
2018-02-05T10:40:13.352Z,50496.00
2018-02-05T10:42:06.737Z,55552.00
2018-02-05T10:43:06.743Z,55424.00
2018-02-05T10:45:00.145Z,56672.00
2018-02-05T10:46:00.138Z,61344.00
2018-02-05T10:47:53.523Z,45952.00
2018-02-05T10:48:53.559Z,38688.00
2018-02-05T10:50:46.943Z,25984.00
2018-02-05T10:51:46.931Z,21792.00
2018-02-05T10:53:40.315Z,33664.00
2018-02-05T10:54:40.320Z,19808.00
2018-02-05T10:56:33.724Z,26752.00
2018-02-05T10:57:33.724Z,9940.00
2018-02-05T10:59:27.117Z,10356.00
2018-02-05T11:00:27.151Z,10160.00
2018-02-05T11:02:20.550Z,8044.00
2018-02-05T11:03:20.520Z,7904.00
2018-02-05T11:05:13.924Z,7532.00
2018-02-05T11:06:13.907Z,7196.00
2018-02-05T11:08:07.307Z,6344.00
2018-02-05T11:09:07.339Z,6840.00
2018-02-05T11:11:00.718Z,7096.00
2018-02-05T11:12:00.766Z,7256.00
2018-02-05T11:13:54.146Z,7240.00
2018-02-05T11:14:54.106Z,7772.00
2018-02-05T11:16:47.506Z,8848.00
2018-02-05T11:17:47.487Z,8724.00
2018-02-05T11:19:40.873Z,7476.00
2018-02-05T11:20:40.876Z,7432.00
2018-02-05T11:22:34.328Z,7904.00
2018-02-05T11:23:34.275Z,7444.00
2018-02-05T11:25:27.645Z,7112.00
2018-02-05T11:26:27.648Z,6848.00
2018-02-05T11:28:21.048Z,7012.00
2018-02-05T11:29:21.035Z,7608.00
2018-02-05T11:31:14.420Z,8872.00
2018-02-05T11:32:14.465Z,11016.00
2018-02-05T11:34:07.818Z,11176.00
2018-02-05T11:35:07.798Z,10640.00
2018-02-05T11:37:01.216Z,10076.00
2018-02-05T11:38:01.199Z,11764.00
2018-02-05T11:39:54.633Z,9716.00
2018-02-05T11:40:54.570Z,8544.00
2018-02-05T11:42:47.948Z,9792.00
2018-02-05T11:43:47.974Z,9536.00
2018-02-05T11:45:41.348Z,11148.00
2018-02-05T11:46:41.331Z,11168.00
2018-02-05T11:48:34.725Z,10772.00
2018-02-05T11:49:34.726Z,8764.00
2018-02-05T11:51:28.154Z,10532.00
2018-02-05T11:52:28.109Z,10204.00
2018-02-05T11:54:21.623Z,10028.00
2018-02-05T11:55:21.502Z,9780.00
2018-02-05T11:57:14.933Z,13328.00
2018-02-05T11:58:14.886Z,15648.00
2018-02-05T12:00:08.287Z,22368.00
2018-02-05T12:01:08.284Z,27904.00
2018-02-05T12:03:01.707Z,17440.00
2018-02-05T12:04:01.656Z,22816.00
2018-02-05T12:05:55.062Z,15104.00
2018-02-05T12:06:55.051Z,17536.00
2018-02-05T12:08:48.425Z,11812.00
2018-02-05T12:09:48.429Z,12072.00
2018-02-05T12:11:41.841Z,11544.00
2018-02-05T12:12:41.829Z,10916.00
2018-02-05T12:14:35.199Z,8576.00
2018-02-05T12:15:35.207Z,7268.00
2018-02-05T12:17:28.611Z,9824.00
2018-02-05T12:18:28.591Z,8656.00
2018-02-05T12:20:21.970Z,9920.00
2018-02-05T12:21:21.972Z,12076.00
2018-02-05T12:23:15.388Z,11056.00
2018-02-05T12:24:15.368Z,11568.00
2018-02-05T12:26:08.751Z,13020.00
2018-02-05T12:27:08.756Z,13616.00
2018-02-05T12:29:02.155Z,5748.00
2018-02-05T12:30:02.162Z,5880.00
2018-02-05T12:31:55.524Z,5388.00
2018-02-05T12:32:55.539Z,4876.00
2018-02-05T12:34:48.926Z,5456.00
2018-02-05T12:35:48.914Z,6160.00
2018-02-05T12:37:42.314Z,8204.00
2018-02-05T12:38:42.298Z,8528.00
2018-02-05T12:40:35.686Z,9132.00
2018-02-05T12:41:35.696Z,10092.00
2018-02-05T12:43:29.138Z,9008.00
2018-02-05T12:44:29.072Z,9064.00
2018-02-05T12:46:23.464Z,10720.00
2018-02-05T12:47:23.454Z,11212.00
2018-02-05T12:49:16.861Z,11132.00
2018-02-05T12:50:16.840Z,10224.00
2018-02-05T12:52:10.269Z,9136.00
2018-02-05T12:53:10.273Z,8908.00
2018-02-05T12:55:03.675Z,8968.00
2018-02-05T12:56:03.657Z,9020.00
2018-02-05T12:57:57.046Z,9828.00
2018-02-05T12:58:57.049Z,9944.00
2018-02-05T13:00:50.445Z,10892.00
2018-02-05T13:01:50.423Z,11316.00
2018-02-05T13:03:43.812Z,10680.00
2018-02-05T13:04:43.810Z,10172.00
2018-02-05T13:06:37.214Z,11240.00
2018-02-05T13:07:37.199Z,12188.00
2018-02-05T13:09:30.635Z,12660.00
2018-02-05T13:10:30.598Z,12276.00
2018-02-05T13:12:23.962Z,12600.00
2018-02-05T13:13:23.965Z,13068.00
2018-02-05T13:15:17.370Z,13844.00
2018-02-05T13:16:17.351Z,14088.00
2018-02-05T13:18:10.745Z,15224.00
2018-02-05T13:19:10.743Z,15600.00
2018-02-05T13:21:04.139Z,17472.00
2018-02-05T13:22:04.125Z,17344.00
2018-02-05T13:23:57.510Z,16896.00
2018-02-05T13:24:57.512Z,15812.00
2018-02-05T13:26:50.908Z,15944.00
2018-02-05T13:27:50.897Z,16896.00
2018-02-05T13:29:44.279Z,17504.00
2018-02-05T13:30:44.284Z,19264.00
2018-02-05T13:32:37.685Z,15808.00
2018-02-05T13:33:37.670Z,14316.00
2018-02-05T13:35:31.077Z,13540.00
2018-02-05T13:36:31.054Z,13136.00
2018-02-05T13:38:24.459Z,11836.00
2018-02-05T13:39:24.440Z,15440.00
2018-02-05T13:41:17.856Z,16320.00
2018-02-05T13:42:17.829Z,15288.00
2018-02-05T13:44:11.283Z,14108.00
2018-02-05T13:45:11.299Z,13756.00
2018-02-05T13:47:04.681Z,11936.00
2018-02-05T13:48:04.653Z,11428.00
2018-02-05T13:49:58.044Z,11436.00
2018-02-05T13:50:58.040Z,12060.00
2018-02-05T13:52:51.443Z,13136.00
2018-02-05T13:53:51.424Z,13016.00
2018-02-05T13:55:44.807Z,11972.00
2018-02-05T13:56:44.809Z,13996.00
2018-02-05T13:58:38.212Z,16244.00
2018-02-05T13:59:38.220Z,17088.00
2018-02-05T14:01:31.580Z,16060.00
2018-02-05T14:02:31.581Z,15488.00
2018-02-05T14:04:24.988Z,14356.00
2018-02-05T14:05:24.989Z,14268.00
2018-02-05T14:07:18.359Z,12056.00
2018-02-05T14:08:18.374Z,11664.00
2018-02-05T14:10:11.755Z,9088.00
2018-02-05T14:11:11.738Z,8440.00
2018-02-05T14:13:05.121Z,8108.00
2018-02-05T14:14:05.186Z,6784.00
2018-02-05T14:15:58.524Z,6692.00
2018-02-05T14:16:58.524Z,7784.00
2018-02-05T14:18:51.890Z,7824.00
2018-02-05T14:19:51.896Z,7832.00
2018-02-05T14:21:45.296Z,8136.00
2018-02-05T14:22:45.276Z,8520.00
2018-02-05T14:24:38.683Z,9420.00
2018-02-05T14:25:38.659Z,9600.00
2018-02-05T14:27:32.040Z,9824.00
2018-02-05T14:28:32.047Z,9972.00
2018-02-05T14:30:25.448Z,10412.00
2018-02-05T14:31:25.432Z,10856.00
2018-02-05T14:33:18.816Z,11188.00
2018-02-05T14:34:18.817Z,10972.00
2018-02-05T14:36:12.224Z,10220.00
2018-02-05T14:37:12.199Z,9736.00
2018-02-05T14:39:05.584Z,9136.00
2018-02-05T14:40:05.585Z,8296.00
2018-02-05T14:41:58.984Z,7392.00
2018-02-05T14:42:58.969Z,7320.00
2018-02-05T14:44:52.351Z,8420.00
2018-02-05T14:45:52.355Z,8468.00
2018-02-05T14:47:45.766Z,7596.00
2018-02-05T14:48:45.749Z,7592.00
2018-02-05T14:50:39.135Z,7036.00
2018-02-05T14:51:39.134Z,7900.00
2018-02-05T14:53:32.537Z,8716.00
2018-02-05T14:54:32.520Z,9344.00
2018-02-05T14:56:25.903Z,8076.00
2018-02-05T14:57:25.904Z,7924.00
2018-02-05T14:59:19.306Z,7456.00
2018-02-05T15:00:19.292Z,6892.00
2018-02-05T15:02:12.691Z,5480.00
2018-02-05T15:03:12.675Z,5468.00
2018-02-05T15:05:06.057Z,6064.00
2018-02-05T15:06:06.061Z,5828.00
2018-02-05T15:07:59.462Z,6688.00
2018-02-05T15:08:59.444Z,6084.00
2018-02-05T15:10:52.833Z,6092.00
2018-02-05T15:11:52.833Z,5908.00
2018-02-05T15:13:46.233Z,5652.00
2018-02-05T15:14:46.214Z,6532.00
2018-02-05T15:16:39.594Z,5612.00
2018-02-05T15:17:39.600Z,6000.00
2018-02-05T15:19:32.996Z,6552.00
2018-02-05T15:20:32.979Z,6564.00
2018-02-05T15:22:26.360Z,5484.00
2018-02-05T15:23:26.365Z,5528.00
2018-02-05T15:25:19.774Z,5256.00
2018-02-05T15:26:19.751Z,4684.00
2018-02-05T15:28:13.142Z,5364.00
2018-02-05T15:29:13.144Z,4844.00
2018-02-05T15:31:06.548Z,4180.00
2018-02-05T15:32:06.529Z,4796.00
2018-02-05T15:33:59.940Z,5340.00
2018-02-05T15:34:59.921Z,4832.00
2018-02-05T15:36:53.304Z,4108.00
2018-02-05T15:37:53.311Z,3956.00
2018-02-05T15:39:46.706Z,3948.00
2018-02-05T15:40:46.691Z,3760.00
2018-02-05T15:42:40.067Z,3524.00
2018-02-05T15:43:40.079Z,3260.00
2018-02-05T15:45:33.473Z,3008.00
2018-02-05T15:46:33.466Z,2944.00
2018-02-05T15:48:26.836Z,2720.00
2018-02-05T15:49:26.835Z,2668.00
2018-02-05T15:51:20.284Z,2452.00
2018-02-05T15:52:20.272Z,2468.00
2018-02-05T15:54:13.646Z,2452.00
2018-02-05T15:55:13.646Z,2308.00
2018-02-05T15:57:07.044Z,2104.00
2018-02-05T15:58:07.025Z,2032.00
2018-02-05T16:00:00.418Z,1916.00
2018-02-05T16:01:00.420Z,1880.00
2018-02-05T16:02:53.820Z,1732.00
2018-02-05T16:03:53.797Z,1632.00
2018-02-05T16:05:47.185Z,1468.00
2018-02-05T16:06:47.195Z,1356.00
2018-02-05T16:08:40.584Z,1136.00
2018-02-05T16:09:40.564Z,1032.00
2018-02-05T16:11:33.945Z,884.00
2018-02-05T16:12:33.942Z,824.00
2018-02-05T16:14:27.342Z,720.00
2018-02-05T16:15:27.324Z,672.00
2018-02-05T16:17:20.706Z,584.00
2018-02-05T16:18:20.709Z,548.00
2018-02-05T16:20:14.108Z,476.00
2018-02-05T16:21:14.089Z,444.00
2018-02-05T16:23:07.526Z,376.00
2018-02-05T16:24:07.466Z,336.00
2018-02-05T16:26:00.846Z,276.00
2018-02-05T16:27:00.864Z,252.00
2018-02-05T16:28:54.305Z,200.00
2018-02-05T16:29:54.289Z,188.00
2018-02-05T16:31:47.665Z,152.00
2018-02-05T16:32:47.666Z,132.00
2018-02-05T16:34:41.077Z,104.00
2018-02-05T16:35:41.041Z,92.00
2018-02-05T16:37:34.421Z,72.00
2018-02-05T16:38:34.418Z,60.00
2018-02-05T16:40:27.810Z,48.00
2018-02-05T16:41:27.793Z,40.00
2018-02-05T16:43:21.167Z,28.00
2018-02-05T16:44:21.166Z,20.00
2018-02-05T16:46:14.565Z,16.00
2018-02-05T16:47:14.544Z,16.00
2018-02-05T16:49:07.926Z,8.00
2018-02-05T16:50:07.920Z,8.00
2018-02-05T16:52:00.820Z,8.00
2018-02-05T16:53:00.796Z,4.00
2018-02-05T16:54:53.678Z,4.00
2018-02-05T16:55:53.680Z,0.00
2018-02-05T16:57:47.069Z,4.00
2018-02-05T16:58:47.052Z,0.00
2018-02-05T17:00:40.431Z,0.00
2018-02-05T17:01:40.430Z,0.00
2018-02-05T17:03:33.821Z,0.00
2018-02-05T17:04:33.803Z,0.00
2018-02-05T17:06:27.182Z,0.00
2018-02-05T17:07:27.178Z,0.00
2018-02-05T17:09:20.584Z,0.00
2018-02-05T17:10:20.563Z,0.00
2018-02-05T17:12:13.956Z,0.00
2018-02-05T17:13:13.938Z,0.00
2018-02-05T17:15:07.352Z,0.00
2018-02-05T17:16:07.338Z,0.00
2018-02-05T17:18:00.734Z,0.00
2018-02-05T17:19:00.715Z,0.00
2018-02-05T17:20:54.090Z,0.00
2018-02-05T17:21:54.087Z,0.00
2018-02-05T17:23:47.486Z,0.00
2018-02-05T17:24:47.464Z,0.00
2018-02-05T17:26:40.349Z,0.00
2018-02-05T17:27:40.347Z,0.00
2018-02-05T17:29:33.249Z,0.00
2018-02-05T17:30:33.226Z,0.00
2018-02-05T17:32:26.607Z,0.00
2018-02-05T17:33:26.604Z,0.00
2018-02-05T17:35:19.998Z,0.00
2018-02-05T17:36:19.980Z,0.00
2018-02-05T17:38:13.370Z,0.00
2018-02-05T17:39:13.365Z,0.00
2018-02-05T17:41:06.761Z,0.00
2018-02-05T17:42:06.745Z,0.00
2018-02-05T17:44:00.118Z,0.00
2018-02-05T17:45:00.117Z,0.00
2018-02-05T17:46:53.512Z,0.00
2018-02-05T17:47:53.493Z,0.00
2018-02-05T17:49:46.902Z,0.00
2018-02-05T17:50:46.868Z,0.00
2018-02-05T17:52:39.753Z,0.00
2018-02-05T17:53:39.749Z,0.00
2018-02-05T17:55:33.156Z,0.00
2018-02-05T17:56:33.126Z,0.00
2018-02-05T17:58:26.502Z,0.00
2018-02-05T17:59:26.500Z,0.00
2018-02-05T18:01:19.893Z,0.00
2018-02-05T18:02:19.895Z,0.00
2018-02-05T18:04:13.250Z,0.00
2018-02-05T18:05:13.251Z,0.00
2018-02-05T18:07:06.645Z,0.00
2018-02-05T18:08:06.623Z,0.00
2018-02-05T18:10:00.004Z,0.00
2018-02-05T18:11:00.003Z,0.00